Terminal Aerodrome Forecast
Issued by NWS

Home | Current Version | Previous Version | Text Only | Print | Product List | Glossary On
Versions: 1 2 3 4 5 6 7 8 9 10 11 12 13 14 15 16 17 18 19 20 21 22 23 24 25 26 27 28 29 30 31 32
428
FTAK31 PANC 191732
TAFAEN
TAF
PAEN 191732Z 1918/2018 04004KT P6SM SCT002
      TEMPO 1918/1919 1SM BR BKN002
     FM200000 02009KT P6SM SCT200
     FM200900 02014KT P6SM OVC040=

USA.gov is the U.S. government's official web portal to all federal, state and local government web resources and services.